sensor_id;sensor_type;location;lat;lon;timestamp;P1;durP1;ratioP1;P2;durP2;ratioP2
55758;SDS011;41678;52.126;20.664;2022-08-01T00:01:40;10.90;;;3.95;;
55758;SDS011;41678;52.126;20.664;2022-08-01T00:07:00;19.13;;;3.42;;
55758;SDS011;41678;52.126;20.664;2022-08-01T00:12:20;11.85;;;3.60;;
55758;SDS011;41678;52.126;20.664;2022-08-01T00:17:40;10.07;;;3.35;;
55758;SDS011;41678;52.126;20.664;2022-08-01T00:23:02;13.50;;;3.35;;
55758;SDS011;41678;52.126;20.664;2022-08-01T00:28:22;9.23;;;2.38;;
55758;SDS011;41678;52.126;20.664;2022-08-01T00:33:42;6.70;;;3.28;;
55758;SDS011;41678;52.126;20.664;2022-08-01T00:39:01;10.23;;;2.80;;
55758;SDS011;41678;52.126;20.664;2022-08-01T00:44:21;9.50;;;2.72;;
55758;SDS011;41678;52.126;20.664;2022-08-01T00:49:41;16.15;;;3.13;;
55758;SDS011;41678;52.126;20.664;2022-08-01T00:55:01;14.15;;;2.92;;
55758;SDS011;41678;52.126;20.664;2022-08-01T01:00:21;10.05;;;2.50;;
55758;SDS011;41678;52.126;20.664;2022-08-01T01:06:25;9.98;;;2.70;;
55758;SDS011;41678;52.126;20.664;2022-08-01T01:11:37;10.85;;;2.58;;
55758;SDS011;41678;52.126;20.664;2022-08-01T01:17:00;12.38;;;2.30;;
55758;SDS011;41678;52.126;20.664;2022-08-01T01:23:28;10.20;;;2.50;;
55758;SDS011;41678;52.126;20.664;2022-08-01T01:34:27;10.20;;;2.85;;
55758;SDS011;41678;52.126;20.664;2022-08-01T01:39:49;13.20;;;2.70;;
55758;SDS011;41678;52.126;20.664;2022-08-01T01:45:11;14.93;;;2.67;;
55758;SDS011;41678;52.126;20.664;2022-08-01T01:50:32;7.10;;;3.58;;
55758;SDS011;41678;52.126;20.664;2022-08-01T02:01:14;6.88;;;3.35;;
55758;SDS011;41678;52.126;20.664;2022-08-01T02:06:35;9.77;;;3.55;;
55758;SDS011;41678;52.126;20.664;2022-08-01T02:11:57;6.25;;;3.22;;
55758;SDS011;41678;52.126;20.664;2022-08-01T02:17:19;11.30;;;3.97;;
55758;SDS011;41678;52.126;20.664;2022-08-01T02:22:42;9.07;;;3.42;;
55758;SDS011;41678;52.126;20.664;2022-08-01T02:28:06;28.75;;;4.22;;
55758;SDS011;41678;52.126;20.664;2022-08-01T02:33:33;8.88;;;4.05;;
55758;SDS011;41678;52.126;20.664;2022-08-01T02:38:56;10.40;;;3.95;;
55758;SDS011;41678;52.126;20.664;2022-08-01T02:44:24;8.05;;;4.07;;
55758;SDS011;41678;52.126;20.664;2022-08-01T02:49:48;7.68;;;4.18;;
55758;SDS011;41678;52.126;20.664;2022-08-01T02:55:11;8.88;;;4.22;;
55758;SDS011;41678;52.126;20.664;2022-08-01T03:00:33;7.55;;;4.32;;
55758;SDS011;41678;52.126;20.664;2022-08-01T03:05:53;22.95;;;4.22;;
55758;SDS011;41678;52.126;20.664;2022-08-01T03:11:13;17.38;;;4.10;;
55758;SDS011;41678;52.126;20.664;2022-08-01T03:16:35;9.00;;;4.07;;
55758;SDS011;41678;52.126;20.664;2022-08-01T03:21:58;8.57;;;3.95;;
55758;SDS011;41678;52.126;20.664;2022-08-01T03:27:22;10.57;;;3.70;;
55758;SDS011;41678;52.126;20.664;2022-08-01T03:32:44;11.73;;;3.83;;
55758;SDS011;41678;52.126;20.664;2022-08-01T03:38:03;11.40;;;3.67;;
55758;SDS011;41678;52.126;20.664;2022-08-01T03:43:30;12.73;;;3.97;;
55758;SDS011;41678;52.126;20.664;2022-08-01T03:48:55;17.83;;;4.10;;
55758;SDS011;41678;52.126;20.664;2022-08-01T03:54:24;7.15;;;3.63;;
55758;SDS011;41678;52.126;20.664;2022-08-01T03:59:47;10.40;;;4.03;;
55758;SDS011;41678;52.126;20.664;2022-08-01T04:05:08;9.25;;;4.20;;
55758;SDS011;41678;52.126;20.664;2022-08-01T04:10:28;7.53;;;3.17;;
55758;SDS011;41678;52.126;20.664;2022-08-01T04:15:48;11.13;;;4.20;;
55758;SDS011;41678;52.126;20.664;2022-08-01T04:21:07;11.07;;;3.85;;
55758;SDS011;41678;52.126;20.664;2022-08-01T04:26:27;8.70;;;4.07;;
55758;SDS011;41678;52.126;20.664;2022-08-01T04:31:49;13.38;;;3.72;;
55758;SDS011;41678;52.126;20.664;2022-08-01T04:37:10;13.82;;;4.53;;
55758;SDS011;41678;52.126;20.664;2022-08-01T04:42:34;13.80;;;4.90;;
55758;SDS011;41678;52.126;20.664;2022-08-01T04:47:54;11.05;;;5.15;;
55758;SDS011;41678;52.126;20.664;2022-08-01T04:53:17;14.43;;;5.30;;
55758;SDS011;41678;52.126;20.664;2022-08-01T04:58:41;9.85;;;5.50;;
55758;SDS011;41678;52.126;20.664;2022-08-01T05:04:01;12.07;;;7.05;;
55758;SDS011;41678;52.126;20.664;2022-08-01T05:09:21;10.73;;;6.93;;
55758;SDS011;41678;52.126;20.664;2022-08-01T05:14:41;15.55;;;7.68;;
55758;SDS011;41678;52.126;20.664;2022-08-01T05:20:01;13.60;;;7.38;;
55758;SDS011;41678;52.126;20.664;2022-08-01T05:25:21;15.85;;;7.45;;
55758;SDS011;41678;52.126;20.664;2022-08-01T05:30:41;13.77;;;7.47;;
55758;SDS011;41678;52.126;20.664;2022-08-01T05:36:02;20.92;;;8.95;;
55758;SDS011;41678;52.126;20.664;2022-08-01T05:41:22;19.85;;;9.38;;
55758;SDS011;41678;52.126;20.664;2022-08-01T05:46:41;17.90;;;9.43;;
55758;SDS011;41678;52.126;20.664;2022-08-01T05:52:01;14.77;;;8.88;;
55758;SDS011;41678;52.126;20.664;2022-08-01T05:57:21;22.35;;;9.93;;
55758;SDS011;41678;52.126;20.664;2022-08-01T06:02:44;14.70;;;9.88;;
55758;SDS011;41678;52.126;20.664;2022-08-01T06:08:04;22.80;;;10.95;;
55758;SDS011;41678;52.126;20.664;2022-08-01T06:13:23;17.55;;;10.52;;
55758;SDS011;41678;52.126;20.664;2022-08-01T06:18:43;17.33;;;8.90;;
55758;SDS011;41678;52.126;20.664;2022-08-01T06:24:03;15.60;;;9.13;;
55758;SDS011;41678;52.126;20.664;2022-08-01T06:29:24;16.85;;;9.38;;
55758;SDS011;41678;52.126;20.664;2022-08-01T06:34:43;12.65;;;8.52;;
55758;SDS011;41678;52.126;20.664;2022-08-01T06:40:08;14.70;;;8.95;;
55758;SDS011;41678;52.126;20.664;2022-08-01T06:45:29;16.60;;;8.60;;
55758;SDS011;41678;52.126;20.664;2022-08-01T06:50:48;14.27;;;8.15;;
55758;SDS011;41678;52.126;20.664;2022-08-01T06:56:08;11.57;;;7.38;;
55758;SDS011;41678;52.126;20.664;2022-08-01T07:01:28;14.00;;;8.18;;
55758;SDS011;41678;52.126;20.664;2022-08-01T07:06:48;10.75;;;6.97;;
55758;SDS011;41678;52.126;20.664;2022-08-01T07:12:08;6.82;;;4.03;;
55758;SDS011;41678;52.126;20.664;2022-08-01T07:17:28;14.85;;;4.68;;
55758;SDS011;41678;52.126;20.664;2022-08-01T07:22:48;7.75;;;3.78;;
55758;SDS011;41678;52.126;20.664;2022-08-01T07:28:08;12.98;;;3.40;;
55758;SDS011;41678;52.126;20.664;2022-08-01T07:33:28;10.15;;;3.72;;
55758;SDS011;41678;52.126;20.664;2022-08-01T07:38:47;10.30;;;3.00;;
55758;SDS011;41678;52.126;20.664;2022-08-01T07:44:07;7.40;;;2.55;;
55758;SDS011;41678;52.126;20.664;2022-08-01T07:49:27;6.03;;;2.97;;
55758;SDS011;41678;52.126;20.664;2022-08-01T07:54:47;4.95;;;2.17;;
55758;SDS011;41678;52.126;20.664;2022-08-01T08:00:07;8.35;;;2.72;;
55758;SDS011;41678;52.126;20.664;2022-08-01T08:05:28;6.18;;;2.75;;
55758;SDS011;41678;52.126;20.664;2022-08-01T08:10:48;8.75;;;2.53;;
55758;SDS011;41678;52.126;20.664;2022-08-01T08:16:07;7.68;;;2.55;;
55758;SDS011;41678;52.126;20.664;2022-08-01T08:21:27;5.95;;;2.28;;
55758;SDS011;41678;52.126;20.664;2022-08-01T08:26:48;6.55;;;2.50;;
55758;SDS011;41678;52.126;20.664;2022-08-01T08:32:09;9.98;;;2.70;;
55758;SDS011;41678;52.126;20.664;2022-08-01T08:37:28;8.50;;;3.20;;
55758;SDS011;41678;52.126;20.664;2022-08-01T08:42:48;8.10;;;3.97;;
55758;SDS011;41678;52.126;20.664;2022-08-01T08:48:09;11.30;;;3.85;;
55758;SDS011;41678;52.126;20.664;2022-08-01T08:53:28;10.85;;;5.13;;
55758;SDS011;41678;52.126;20.664;2022-08-01T08:58:52;14.95;;;5.70;;
55758;SDS011;41678;52.126;20.664;2022-08-01T09:04:12;13.20;;;7.82;;
55758;SDS011;41678;52.126;20.664;2022-08-01T09:09:32;18.17;;;7.55;;
55758;SDS011;41678;52.126;20.664;2022-08-01T09:14:52;14.15;;;8.70;;
55758;SDS011;41678;52.126;20.664;2022-08-01T09:20:22;12.25;;;7.22;;
55758;SDS011;41678;52.126;20.664;2022-08-01T09:25:50;11.68;;;7.22;;
55758;SDS011;41678;52.126;20.664;2022-08-01T09:31:13;14.25;;;7.05;;
55758;SDS011;41678;52.126;20.664;2022-08-01T09:47:43;11.60;;;6.65;;
55758;SDS011;41678;52.126;20.664;2022-08-01T09:53:03;11.30;;;6.13;;
55758;SDS011;41678;52.126;20.664;2022-08-01T09:58:23;10.02;;;5.25;;
55758;SDS011;41678;52.126;20.664;2022-08-01T10:03:43;21.63;;;5.88;;
55758;SDS011;41678;52.126;20.664;2022-08-01T10:09:03;8.80;;;5.05;;
55758;SDS011;41678;52.126;20.664;2022-08-01T10:14:24;8.93;;;4.90;;
55758;SDS011;41678;52.126;20.664;2022-08-01T10:19:44;11.32;;;5.22;;
55758;SDS011;41678;52.126;20.664;2022-08-01T10:25:05;10.73;;;5.25;;
55758;SDS011;41678;52.126;20.664;2022-08-01T10:30:25;5.80;;;3.28;;
55758;SDS011;41678;52.126;20.664;2022-08-01T10:35:45;8.35;;;2.55;;
55758;SDS011;41678;52.126;20.664;2022-08-01T10:41:05;11.38;;;2.53;;
55758;SDS011;41678;52.126;20.664;2022-08-01T10:46:25;9.98;;;2.00;;
55758;SDS011;41678;52.126;20.664;2022-08-01T10:51:45;8.77;;;1.85;;
55758;SDS011;41678;52.126;20.664;2022-08-01T10:57:05;4.85;;;1.70;;
55758;SDS011;41678;52.126;20.664;2022-08-01T11:07:53;6.47;;;1.50;;
55758;SDS011;41678;52.126;20.664;2022-08-01T11:13:13;6.72;;;1.55;;
55758;SDS011;41678;52.126;20.664;2022-08-01T11:18:33;8.30;;;1.80;;
55758;SDS011;41678;52.126;20.664;2022-08-01T11:23:53;6.50;;;1.63;;
55758;SDS011;41678;52.126;20.664;2022-08-01T11:29:14;8.85;;;1.55;;
55758;SDS011;41678;52.126;20.664;2022-08-01T11:34:54;7.68;;;1.50;;
55758;SDS011;41678;52.126;20.664;2022-08-01T11:56:34;4.10;;;1.48;;
55758;SDS011;41678;52.126;20.664;2022-08-01T12:01:54;12.30;;;1.55;;
55758;SDS011;41678;52.126;20.664;2022-08-01T12:07:15;7.73;;;1.20;;
55758;SDS011;41678;52.126;20.664;2022-08-01T12:12:36;8.63;;;1.60;;
55758;SDS011;41678;52.126;20.664;2022-08-01T12:18:04;11.52;;;1.65;;
55758;SDS011;41678;52.126;20.664;2022-08-01T12:23:25;6.20;;;1.55;;
55758;SDS011;41678;52.126;20.664;2022-08-01T12:28:45;6.72;;;1.40;;
55758;SDS011;41678;52.126;20.664;2022-08-01T12:39:47;7.90;;;2.15;;
55758;SDS011;41678;52.126;20.664;2022-08-01T12:45:07;6.82;;;2.00;;
55758;SDS011;41678;52.126;20.664;2022-08-01T12:50:29;4.30;;;1.60;;
55758;SDS011;41678;52.126;20.664;2022-08-01T12:55:52;6.50;;;1.50;;
55758;SDS011;41678;52.126;20.664;2022-08-01T13:01:13;8.18;;;1.95;;
55758;SDS011;41678;52.126;20.664;2022-08-01T13:06:34;4.90;;;1.77;;
55758;SDS011;41678;52.126;20.664;2022-08-01T13:11:54;9.10;;;1.60;;
55758;SDS011;41678;52.126;20.664;2022-08-01T13:17:29;5.25;;;1.83;;
55758;SDS011;41678;52.126;20.664;2022-08-01T13:22:49;7.05;;;1.90;;
55758;SDS011;41678;52.126;20.664;2022-08-01T13:33:44;6.93;;;1.88;;
55758;SDS011;41678;52.126;20.664;2022-08-01T13:39:06;5.68;;;1.60;;
55758;SDS011;41678;52.126;20.664;2022-08-01T13:44:45;4.80;;;1.50;;
55758;SDS011;41678;52.126;20.664;2022-08-01T13:50:05;8.07;;;2.40;;
55758;SDS011;41678;52.126;20.664;2022-08-01T13:55:25;7.97;;;2.17;;
55758;SDS011;41678;52.126;20.664;2022-08-01T14:00:45;7.63;;;2.10;;
55758;SDS011;41678;52.126;20.664;2022-08-01T14:06:05;9.60;;;1.88;;
55758;SDS011;41678;52.126;20.664;2022-08-01T14:11:25;6.60;;;1.75;;
55758;SDS011;41678;52.126;20.664;2022-08-01T14:16:44;4.53;;;1.77;;
55758;SDS011;41678;52.126;20.664;2022-08-01T14:22:04;9.38;;;1.80;;
55758;SDS011;41678;52.126;20.664;2022-08-01T14:27:24;5.47;;;1.80;;
55758;SDS011;41678;52.126;20.664;2022-08-01T14:32:44;6.78;;;1.70;;
55758;SDS011;41678;52.126;20.664;2022-08-01T14:38:03;11.75;;;1.75;;
55758;SDS011;41678;52.126;20.664;2022-08-01T14:43:23;12.20;;;2.45;;
55758;SDS011;41678;52.126;20.664;2022-08-01T14:48:43;6.55;;;1.77;;
55758;SDS011;41678;52.126;20.664;2022-08-01T14:54:03;15.00;;;2.63;;
55758;SDS011;41678;52.126;20.664;2022-08-01T14:59:24;7.70;;;1.67;;
55758;SDS011;41678;52.126;20.664;2022-08-01T15:04:45;5.28;;;2.10;;
55758;SDS011;41678;52.126;20.664;2022-08-01T15:10:05;5.38;;;1.70;;
55758;SDS011;41678;52.126;20.664;2022-08-01T15:15:26;9.80;;;2.13;;
55758;SDS011;41678;52.126;20.664;2022-08-01T15:20:46;5.20;;;2.17;;
55758;SDS011;41678;52.126;20.664;2022-08-01T15:26:06;6.15;;;1.70;;
55758;SDS011;41678;52.126;20.664;2022-08-01T15:31:33;5.50;;;1.80;;
55758;SDS011;41678;52.126;20.664;2022-08-01T15:36:53;6.40;;;2.28;;
55758;SDS011;41678;52.126;20.664;2022-08-01T15:42:13;7.50;;;2.40;;
55758;SDS011;41678;52.126;20.664;2022-08-01T15:47:35;7.53;;;1.95;;
55758;SDS011;41678;52.126;20.664;2022-08-01T15:52:55;11.65;;;3.33;;
55758;SDS011;41678;52.126;20.664;2022-08-01T15:58:15;6.72;;;1.80;;
55758;SDS011;41678;52.126;20.664;2022-08-01T16:03:35;8.23;;;1.98;;
55758;SDS011;41678;52.126;20.664;2022-08-01T16:08:55;14.13;;;2.50;;
55758;SDS011;41678;52.126;20.664;2022-08-01T16:14:15;13.82;;;2.53;;
55758;SDS011;41678;52.126;20.664;2022-08-01T16:19:34;5.85;;;1.90;;
55758;SDS011;41678;52.126;20.664;2022-08-01T16:24:54;8.88;;;2.80;;
55758;SDS011;41678;52.126;20.664;2022-08-01T16:37:35;9.07;;;2.25;;
55758;SDS011;41678;52.126;20.664;2022-08-01T16:42:55;5.95;;;1.80;;
55758;SDS011;41678;52.126;20.664;2022-08-01T16:48:15;12.65;;;2.17;;
55758;SDS011;41678;52.126;20.664;2022-08-01T16:53:36;4.85;;;1.90;;
55758;SDS011;41678;52.126;20.664;2022-08-01T16:58:56;7.45;;;1.90;;
55758;SDS011;41678;52.126;20.664;2022-08-01T17:04:16;7.85;;;2.67;;
55758;SDS011;41678;52.126;20.664;2022-08-01T17:09:36;6.47;;;2.10;;
55758;SDS011;41678;52.126;20.664;2022-08-01T17:14:55;11.73;;;2.45;;
55758;SDS011;41678;52.126;20.664;2022-08-01T17:20:16;16.97;;;2.87;;
55758;SDS011;41678;52.126;20.664;2022-08-01T17:25:36;14.77;;;2.40;;
55758;SDS011;41678;52.126;20.664;2022-08-01T17:30:56;11.60;;;2.50;;
55758;SDS011;41678;52.126;20.664;2022-08-01T17:36:16;13.30;;;2.43;;
55758;SDS011;41678;52.126;20.664;2022-08-01T17:41:36;17.70;;;4.00;;
55758;SDS011;41678;52.126;20.664;2022-08-01T17:46:57;9.07;;;2.60;;
55758;SDS011;41678;52.126;20.664;2022-08-01T17:52:16;20.17;;;3.00;;
55758;SDS011;41678;52.126;20.664;2022-08-01T17:57:36;6.60;;;2.35;;
55758;SDS011;41678;52.126;20.664;2022-08-01T18:02:56;8.65;;;2.20;;
55758;SDS011;41678;52.126;20.664;2022-08-01T18:08:16;6.60;;;2.38;;
55758;SDS011;41678;52.126;20.664;2022-08-01T18:13:36;10.18;;;2.50;;
55758;SDS011;41678;52.126;20.664;2022-08-01T18:18:56;11.05;;;3.60;;
55758;SDS011;41678;52.126;20.664;2022-08-01T18:24:16;5.78;;;2.53;;
55758;SDS011;41678;52.126;20.664;2022-08-01T18:29:36;6.50;;;2.40;;
55758;SDS011;41678;52.126;20.664;2022-08-01T18:34:55;20.70;;;2.55;;
55758;SDS011;41678;52.126;20.664;2022-08-01T18:40:15;7.88;;;2.90;;
55758;SDS011;41678;52.126;20.664;2022-08-01T18:45:35;8.07;;;3.47;;
55758;SDS011;41678;52.126;20.664;2022-08-01T18:50:55;7.75;;;3.25;;
55758;SDS011;41678;52.126;20.664;2022-08-01T18:56:14;8.80;;;3.50;;
55758;SDS011;41678;52.126;20.664;2022-08-01T19:01:34;6.47;;;2.92;;
55758;SDS011;41678;52.126;20.664;2022-08-01T19:06:54;10.95;;;3.75;;
55758;SDS011;41678;52.126;20.664;2022-08-01T19:12:14;11.75;;;3.88;;
55758;SDS011;41678;52.126;20.664;2022-08-01T19:17:34;10.63;;;3.92;;
55758;SDS011;41678;52.126;20.664;2022-08-01T19:22:54;15.02;;;4.70;;
55758;SDS011;41678;52.126;20.664;2022-08-01T19:35:57;14.77;;;4.55;;
55758;SDS011;41678;52.126;20.664;2022-08-01T19:41:19;19.65;;;4.82;;
55758;SDS011;41678;52.126;20.664;2022-08-01T19:46:40;11.75;;;4.95;;
55758;SDS011;41678;52.126;20.664;2022-08-01T19:57:22;19.90;;;4.57;;
55758;SDS011;41678;52.126;20.664;2022-08-01T20:03:03;15.38;;;5.00;;
55758;SDS011;41678;52.126;20.664;2022-08-01T20:08:23;12.17;;;4.43;;
55758;SDS011;41678;52.126;20.664;2022-08-01T20:13:44;10.88;;;4.68;;
55758;SDS011;41678;52.126;20.664;2022-08-01T20:19:06;11.80;;;4.60;;
55758;SDS011;41678;52.126;20.664;2022-08-01T20:24:27;12.30;;;5.35;;
55758;SDS011;41678;52.126;20.664;2022-08-01T20:29:47;13.27;;;5.07;;
55758;SDS011;41678;52.126;20.664;2022-08-01T20:35:08;11.25;;;5.43;;
55758;SDS011;41678;52.126;20.664;2022-08-01T20:40:28;17.08;;;5.70;;
55758;SDS011;41678;52.126;20.664;2022-08-01T20:45:49;11.52;;;5.20;;
55758;SDS011;41678;52.126;20.664;2022-08-01T20:51:09;11.05;;;5.45;;
55758;SDS011;41678;52.126;20.664;2022-08-01T21:14:57;14.63;;;5.00;;
55758;SDS011;41678;52.126;20.664;2022-08-01T21:20:20;13.32;;;5.18;;
55758;SDS011;41678;52.126;20.664;2022-08-01T21:25:41;15.82;;;6.13;;
55758;SDS011;41678;52.126;20.664;2022-08-01T21:31:03;13.98;;;5.35;;
55758;SDS011;41678;52.126;20.664;2022-08-01T21:36:23;13.43;;;6.40;;
55758;SDS011;41678;52.126;20.664;2022-08-01T21:41:45;14.52;;;6.10;;
55758;SDS011;41678;52.126;20.664;2022-08-01T21:47:05;15.07;;;5.82;;
55758;SDS011;41678;52.126;20.664;2022-08-01T21:52:29;14.43;;;5.45;;
55758;SDS011;41678;52.126;20.664;2022-08-01T22:03:50;11.02;;;5.15;;
55758;SDS011;41678;52.126;20.664;2022-08-01T22:09:11;12.43;;;4.75;;
55758;SDS011;41678;52.126;20.664;2022-08-01T22:14:32;10.70;;;5.43;;
55758;SDS011;41678;52.126;20.664;2022-08-01T22:20:01;11.68;;;5.50;;
55758;SDS011;41678;52.126;20.664;2022-08-01T22:25:21;9.82;;;5.45;;
55758;SDS011;41678;52.126;20.664;2022-08-01T22:30:42;10.82;;;5.25;;
55758;SDS011;41678;52.126;20.664;2022-08-01T22:36:03;9.68;;;4.78;;
55758;SDS011;41678;52.126;20.664;2022-08-01T22:41:24;10.25;;;4.95;;
55758;SDS011;41678;52.126;20.664;2022-08-01T22:46:59;16.25;;;5.65;;
55758;SDS011;41678;52.126;20.664;2022-08-01T22:52:28;11.73;;;5.55;;
55758;SDS011;41678;52.126;20.664;2022-08-01T22:58:00;8.90;;;4.80;;
55758;SDS011;41678;52.126;20.664;2022-08-01T23:03:25;12.63;;;5.95;;
55758;SDS011;41678;52.126;20.664;2022-08-01T23:08:46;17.42;;;5.45;;
55758;SDS011;41678;52.126;20.664;2022-08-01T23:14:09;11.85;;;5.55;;
55758;SDS011;41678;52.126;20.664;2022-08-01T23:19:30;18.05;;;5.63;;
55758;SDS011;41678;52.126;20.664;2022-08-01T23:24:51;10.77;;;4.93;;
55758;SDS011;41678;52.126;20.664;2022-08-01T23:30:12;10.00;;;5.23;;
55758;SDS011;41678;52.126;20.664;2022-08-01T23:35:32;10.93;;;4.70;;
55758;SDS011;41678;52.126;20.664;2022-08-01T23:40:53;8.83;;;4.90;;
55758;SDS011;41678;52.126;20.664;2022-08-01T23:46:13;9.38;;;4.68;;
55758;SDS011;41678;52.126;20.664;2022-08-01T23:51:32;9.43;;;5.28;;
55758;SDS011;41678;52.126;20.664;2022-08-01T23:56:52;13.10;;;5.65;;
